PWSweather.com
Personal Weather Stations
Station Observations
2450ARBOR
Round Rock, TX 78681

Round Rock, TX 78681

Lat: 30.535239, Lon: -97.728137

Elevation: 800

Station Type:

High Low Average
Temperature 48.7°F9.3°C 45.1°F7.3°C 47.2°F8.4°C
Dew Point 48.0°F8.9°C 45.0°F7.2°C 46.6°F8.1°C
Winds 4.0 mph 6.4 kmh Calm Calm 1.0 mph S1.6 kmh S
Wind Gusts 6.0 mph9.7 kmh -- 3.0 mph4.8 kmh
Humidity 99% 94% 97%
Pressure 30.26 in1024.7 mb 30.15 in1021.0 mb -
Precipitation 2.11 in53.6 mm - -
Hour Temp Dew Point Humidity Winds Wind Gusts Pressure Precip Precip Rate Daily Precip Total
12:16 AM 44.8°F7.1°C 44.0°F6.7°C 97% 2.0 mph NE3.2 kmh NE 2.0 mph3.2 kmh 30.24 in1024.0 mb 0.00 in0.0 mm 0.00 in0.0 mm 0.73 in18.5 mm
12:30 AM 45.0°F7.2°C 44.0°F6.7°C 97% 2.0 mph SW3.2 kmh SW 3.0 mph4.8 kmh 30.20 in1022.7 mb 0.00 in0.0 mm 0.00 in0.0 mm 0.00 in0.0 mm
01:10 AM 45.1°F7.3°C 45.0°F7.2°C 98% Calm Calm 2.0 mph3.2 kmh 30.18 in1022.0 mb 0.34 in8.6 mm 1.02 in25.9 mm 0.34 in8.6 mm
01:20 AM 45.1°F7.3°C 45.0°F7.2°C 98% Calm Calm 2.0 mph3.2 kmh 30.18 in1022.0 mb 0.56 in14.2 mm 1.32 in33.5 mm 0.57 in14.5 mm
02:00 AM 45.5°F7.5°C 45.0°F7.2°C 99% 1.0 mph SSW1.6 kmh SSW 1.0 mph1.6 kmh 30.20 in1022.7 mb 0.58 in14.7 mm 0.06 in1.5 mm 0.80 in20.3 mm
02:10 AM 45.5°F7.5°C 45.0°F7.2°C 99% Calm Calm 3.0 mph4.8 kmh 30.15 in1021.0 mb 0.28 in7.1 mm 0.00 in0.0 mm 0.82 in20.8 mm
03:00 AM 45.9°F7.7°C 46.0°F7.8°C 99% 2.0 mph NNE3.2 kmh NNE 2.0 mph3.2 kmh 30.20 in1022.7 mb 0.24 in6.1 mm 0.00 in0.0 mm 1.04 in26.4 mm
03:10 AM 45.9°F7.7°C 46.0°F7.8°C 99% Calm Calm 3.0 mph4.8 kmh 30.16 in1021.3 mb 0.25 in6.4 mm 0.06 in1.5 mm 1.08 in27.4 mm
03:20 AM 45.9°F7.7°C 46.0°F7.8°C 99% 1.0 mph NNW1.6 kmh NNW 2.0 mph3.2 kmh 30.20 in1022.7 mb 0.33 in8.4 mm 0.48 in12.2 mm 1.17 in29.7 mm
04:10 AM 46.0°F7.8°C 46.0°F7.8°C 99% Calm Calm -- 30.16 in1021.3 mb 0.42 in10.7 mm 0.54 in13.7 mm 1.56 in39.6 mm
04:17 AM 46.0°F7.8°C 46.0°F7.8°C 99% 1.0 mph SW1.6 kmh SW 2.0 mph3.2 kmh 30.16 in1021.3 mb 0.41 in10.4 mm 0.00 in0.0 mm 1.03 in26.2 mm
04:46 AM 46.0°F7.8°C 46.0°F7.8°C 99% Calm Calm 2.0 mph3.2 kmh 30.16 in1021.3 mb 0.29 in7.4 mm 0.00 in0.0 mm 1.04 in26.4 mm
05:10 AM 45.9°F7.7°C 46.0°F7.8°C 99% 3.0 mph SSW4.8 kmh SSW 5.0 mph8.0 kmh 30.21 in1023.0 mb 0.25 in6.4 mm 0.00 in0.0 mm 1.84 in46.7 mm
05:16 AM 45.9°F7.7°C 46.0°F7.8°C 99% 1.0 mph E1.6 kmh E 2.0 mph3.2 kmh 30.16 in1021.3 mb 0.23 in5.8 mm 0.00 in0.0 mm 1.09 in27.7 mm
05:50 AM 45.9°F7.7°C 46.0°F7.8°C 99% Calm Calm 4.0 mph6.4 kmh 30.20 in1022.7 mb 0.12 in3.0 mm 0.00 in0.0 mm 1.88 in47.8 mm
06:20 AM 45.9°F7.7°C 46.0°F7.8°C 99% 3.0 mph WSW4.8 kmh WSW 4.0 mph6.4 kmh 30.22 in1023.4 mb 0.08 in2.0 mm 0.00 in0.0 mm 1.94 in49.3 mm
06:40 AM 45.7°F7.6°C 45.0°F7.2°C 99% 2.0 mph W3.2 kmh W 5.0 mph8.0 kmh 30.19 in1022.4 mb 0.08 in2.0 mm 0.00 in0.0 mm 1.96 in49.8 mm
06:50 AM 45.7°F7.6°C 45.0°F7.2°C 99% 2.0 mph NNW3.2 kmh NNW 3.0 mph4.8 kmh 30.19 in1022.4 mb 0.06 in1.5 mm 0.00 in0.0 mm 1.97 in50.0 mm
07:40 AM 45.9°F7.7°C 46.0°F7.8°C 99% 2.0 mph SSW3.2 kmh SSW 5.0 mph8.0 kmh 30.19 in1022.4 mb 0.01 in0.3 mm 0.00 in0.0 mm 1.13 in28.7 mm
07:50 AM 45.9°F7.7°C 46.0°F7.8°C 99% 1.0 mph SSW1.6 kmh SSW 6.0 mph9.7 kmh 30.19 in1022.4 mb 0.03 in0.8 mm 0.12 in3.0 mm 2.00 in50.8 mm
08:30 AM 45.9°F7.7°C 46.0°F7.8°C 99% Calm Calm 4.0 mph6.4 kmh 30.21 in1023.0 mb 0.10 in2.5 mm 0.21 in5.3 mm 2.08 in52.8 mm
09:10 AM 45.7°F7.6°C 45.0°F7.2°C 99% Calm Calm -- 30.25 in1024.4 mb 0.03 in0.8 mm 0.00 in0.0 mm 2.09 in53.1 mm
09:31 AM 45.7°F7.6°C 45.0°F7.2°C 99% Calm Calm 1.0 mph1.6 kmh 30.25 in1024.4 mb 0.02 in0.5 mm 0.00 in0.0 mm 2.10 in53.3 mm
10:20 AM 46.0°F7.8°C 46.0°F7.8°C 99% Calm Calm -- 30.26 in1024.7 mb 0.00 in0.0 mm 0.00 in0.0 mm 2.10 in53.3 mm
10:40 AM 46.4°F8.0°C 46.0°F7.8°C 98% 1.0 mph SW1.6 kmh SW 1.0 mph1.6 kmh 30.26 in1024.7 mb 0.00 in0.0 mm 0.00 in0.0 mm 2.10 in53.3 mm
11:20 AM 46.6°F8.1°C 46.0°F7.8°C 97% 4.0 mph W6.4 kmh W 4.0 mph6.4 kmh 30.23 in1023.7 mb 0.00 in0.0 mm 0.00 in0.0 mm 2.10 in53.3 mm
11:31 AM 46.6°F8.1°C 46.0°F7.8°C 97% 2.0 mph WNW3.2 kmh WNW 2.0 mph3.2 kmh 30.23 in1023.7 mb 0.00 in0.0 mm 0.00 in0.0 mm 2.10 in53.3 mm
12:01 PM 47.3°F8.5°C 46.0°F7.8°C 97% Calm Calm 2.0 mph3.2 kmh 30.24 in1024.0 mb 0.00 in0.0 mm 0.00 in0.0 mm 2.10 in53.3 mm
01:20 PM 47.7°F8.7°C 47.0°F8.3°C 97% 4.0 mph SW6.4 kmh SW 4.0 mph6.4 kmh 30.24 in1024.0 mb 0.00 in0.0 mm 0.00 in0.0 mm 2.10 in53.3 mm
02:10 PM 47.8°F8.8°C 47.0°F8.3°C 96% 2.0 mph W3.2 kmh W 2.0 mph3.2 kmh 30.22 in1023.4 mb 0.00 in0.0 mm 0.00 in0.0 mm 2.10 in53.3 mm
02:20 PM 47.8°F8.8°C 47.0°F8.3°C 96% 2.0 mph WSW3.2 kmh WSW 5.0 mph8.0 kmh 30.22 in1023.4 mb 0.00 in0.0 mm 0.00 in0.0 mm 2.10 in53.3 mm
02:40 PM 48.0°F8.9°C 47.0°F8.3°C 96% 1.0 mph 1.6 kmh 2.0 mph3.2 kmh 30.22 in1023.4 mb 0.01 in0.3 mm 0.03 in0.8 mm 2.11 in53.6 mm
03:01 PM 48.0°F8.9°C 47.0°F8.3°C 96% Calm Calm 3.0 mph4.8 kmh 30.21 in1023.0 mb 0.01 in0.3 mm 0.00 in0.0 mm 2.11 in53.6 mm
03:20 PM 48.2°F9.0°C 47.0°F8.3°C 95% 2.0 mph 3.2 kmh 4.0 mph6.4 kmh 30.21 in1023.0 mb 0.01 in0.3 mm 0.00 in0.0 mm 0.72 in18.3 mm
03:40 PM 48.4°F9.1°C 47.0°F8.3°C 95% 3.0 mph SE4.8 kmh SE 4.0 mph6.4 kmh 30.21 in1023.0 mb 0.00 in0.0 mm 0.00 in0.0 mm 2.11 in53.6 mm
04:20 PM 48.2°F9.0°C 47.0°F8.3°C 95% 4.0 mph ENE6.4 kmh ENE 4.0 mph6.4 kmh 30.21 in1023.0 mb 0.00 in0.0 mm 0.00 in0.0 mm 2.11 in53.6 mm
05:10 PM 48.6°F9.2°C 47.0°F8.3°C 94% 2.0 mph WNW3.2 kmh WNW 4.0 mph6.4 kmh 30.19 in1022.4 mb 0.00 in0.0 mm 0.00 in0.0 mm 2.11 in53.6 mm
05:20 PM 48.6°F9.2°C 47.0°F8.3°C 94% 1.0 mph SW1.6 kmh SW 2.0 mph3.2 kmh 30.19 in1022.4 mb 0.00 in0.0 mm 0.00 in0.0 mm 0.59 in15.0 mm
05:30 PM 48.4°F9.1°C 47.0°F8.3°C 94% 1.0 mph SSW1.6 kmh SSW 4.0 mph6.4 kmh 30.19 in1022.4 mb 0.00 in0.0 mm 0.00 in0.0 mm 0.58 in14.7 mm
06:01 PM 48.4°F9.1°C 47.0°F8.3°C 94% 2.0 mph S3.2 kmh S 3.0 mph4.8 kmh 30.20 in1022.7 mb 0.00 in0.0 mm 0.00 in0.0 mm 0.57 in14.5 mm
06:20 PM 48.4°F9.1°C 47.0°F8.3°C 94% Calm Calm 1.0 mph1.6 kmh 30.20 in1022.7 mb 0.00 in0.0 mm 0.00 in0.0 mm 0.57 in14.5 mm
06:40 PM 48.4°F9.1°C 47.0°F8.3°C 95% Calm Calm 1.0 mph1.6 kmh 30.20 in1022.7 mb 0.00 in0.0 mm 0.00 in0.0 mm 0.57 in14.5 mm
07:01 PM 48.4°F9.1°C 47.0°F8.3°C 95% 2.0 mph SSW3.2 kmh SSW 4.0 mph6.4 kmh 30.20 in1022.7 mb 0.00 in0.0 mm 0.00 in0.0 mm 0.57 in14.5 mm
07:40 PM 48.4°F9.1°C 47.0°F8.3°C 95% 2.0 mph SSW3.2 kmh SSW 2.0 mph3.2 kmh 30.21 in1023.0 mb 0.00 in0.0 mm 0.00 in0.0 mm 0.55 in14.0 mm
08:01 PM 48.2°F9.0°C 47.0°F8.3°C 95% Calm Calm 3.0 mph4.8 kmh 30.23 in1023.7 mb 0.00 in0.0 mm 0.00 in0.0 mm 0.54 in13.7 mm
08:22 PM 48.4°F9.1°C 47.0°F8.3°C 96% Calm Calm 3.0 mph4.8 kmh 30.26 in1024.7 mb 0.00 in0.0 mm 0.00 in0.0 mm 0.01 in0.3 mm
08:40 PM 48.4°F9.1°C 48.0°F8.9°C 97% 2.0 mph NNE3.2 kmh NNE 2.0 mph3.2 kmh 30.23 in1023.7 mb 0.00 in0.0 mm 0.00 in0.0 mm 0.53 in13.5 mm
08:50 PM 48.4°F9.1°C 48.0°F8.9°C 97% Calm Calm 2.0 mph3.2 kmh 30.23 in1023.7 mb 0.00 in0.0 mm 0.00 in0.0 mm 0.53 in13.5 mm
09:40 PM 48.4°F9.1°C 48.0°F8.9°C 97% Calm Calm 2.0 mph3.2 kmh 30.23 in1023.7 mb 0.00 in0.0 mm 0.00 in0.0 mm 0.52 in13.2 mm
10:01 PM 48.7°F9.3°C 48.0°F8.9°C 98% 1.0 mph ESE1.6 kmh ESE 1.0 mph1.6 kmh 30.26 in1024.7 mb 0.00 in0.0 mm 0.00 in0.0 mm 0.52 in13.2 mm
10:10 PM 48.7°F9.3°C 48.0°F8.9°C 98% 1.0 mph NE1.6 kmh NE 1.0 mph1.6 kmh 30.26 in1024.7 mb 0.01 in0.3 mm 0.07 in1.8 mm 0.52 in13.2 mm
10:50 PM 48.7°F9.3°C 48.0°F8.9°C 98% Calm Calm 2.0 mph3.2 kmh 30.25 in1024.4 mb 0.01 in0.3 mm 0.00 in0.0 mm 0.51 in13.0 mm
11:01 PM 48.7°F9.3°C 48.0°F8.9°C 98% Calm Calm -- 30.26 in1024.7 mb 0.01 in0.3 mm 0.00 in0.0 mm 0.51 in13.0 mm
11:10 PM 48.7°F9.3°C 48.0°F8.9°C 98% Calm Calm 2.0 mph3.2 kmh 30.26 in1024.7 mb 0.00 in0.0 mm 0.00 in0.0 mm 0.51 in13.0 mm
11:50 PM 48.7°F9.3°C 48.0°F8.9°C 98% Calm Calm 2.0 mph3.2 kmh 30.26 in1024.7 mb 0.00 in0.0 mm 0.00 in0.0 mm 0.51 in13.0 mm